Time;durP1;ratioP1;P1;durP2;ratioP2;P2;SDS_P1;SDS_P2;PMS_P1;PMS_P2;Temp;Humidity;BMP_temperature;BMP_pressure;BME280_temperature;BME280_humidity;BME280_pressure;Samples;Min_cycle;Max_cycle;Signal;HPM_P1;HPM_P2
2022/06/25 00:01:20;;;;;;;11.52;7.25;;;21.60;76.00;;;;;;5018842;28;20667;-72
2022/06/25 00:03:47;;;;;;;7.00;4.93;;;21.70;76.00;;;;;;5021668;28;20203;-72
2022/06/25 00:06:14;;;;;;;11.18;6.13;;;21.60;75.90;;;;;;5023078;28;20572;-71
2022/06/25 00:08:41;;;;;;;14.35;9.32;;;21.70;76.10;;;;;;5030748;28;20198;-71
2022/06/25 00:11:08;;;;;;;11.07;7.07;;;21.70;76.30;;;;;;5030600;28;20210;-71
2022/06/25 00:13:54;;;;;;;4.97;3.92;;;21.70;76.40;;;;;;5019814;28;20195;-73
2022/06/25 00:16:22;;;;;;;11.77;6.97;;;21.70;76.20;;;;;;5026092;28;20552;-72
2022/06/25 00:18:49;;;;;;;9.57;5.90;;;21.70;76.40;;;;;;5016927;28;20583;-72
2022/06/25 00:21:16;;;;;;;6.93;4.85;;;21.70;76.70;;;;;;5026858;28;20210;-71
2022/06/25 00:23:43;;;;;;;8.82;4.35;;;21.60;76.60;;;;;;5019418;28;20210;-71
2022/06/25 00:26:09;;;;;;;8.80;5.93;;;21.70;76.90;;;;;;5013841;28;20207;-72
2022/06/25 00:28:36;;;;;;;11.32;7.22;;;21.60;77.10;;;;;;5024040;28;20208;-71
2022/06/25 00:31:03;;;;;;;9.50;7.10;;;21.60;77.30;;;;;;5020398;28;20317;-71
2022/06/25 00:33:31;;;;;;;11.93;7.45;;;21.60;77.50;;;;;;5015715;28;20225;-70
2022/06/25 00:35:58;;;;;;;6.53;5.10;;;21.30;77.50;;;;;;5016252;28;20215;-70
2022/06/25 00:38:25;;;;;;;4.20;3.80;;;21.50;77.90;;;;;;5018962;28;20222;-70
2022/06/25 00:40:52;;;;;;;9.98;5.78;;;21.50;78.20;;;;;;5019919;28;20295;-70
2022/06/25 00:43:19;;;;;;;7.38;4.90;;;21.40;78.40;;;;;;5024166;28;20209;-71
2022/06/25 00:45:46;;;;;;;5.97;4.45;;;21.30;78.60;;;;;;5019759;28;20578;-70
2022/06/25 00:48:13;;;;;;;9.38;5.15;;;21.20;78.80;;;;;;5014210;28;20229;-70
2022/06/25 00:50:41;;;;;;;4.43;3.97;;;21.20;78.90;;;;;;5020798;28;20202;-71
2022/06/25 00:53:10;;;;;;;5.60;3.97;;;21.10;79.20;;;;;;5022767;28;20218;-70
2022/06/25 00:55:39;;;;;;;4.57;4.03;;;21.10;79.40;;;;;;5020758;28;20208;-70
2022/06/25 00:58:10;;;;;;;7.28;4.55;;;21.00;79.50;;;;;;5017180;28;20695;-70
2022/06/25 01:00:39;;;;;;;5.95;3.75;;;20.90;79.60;;;;;;5029209;28;20247;-72
2022/06/25 01:03:06;;;;;;;7.05;4.50;;;20.90;79.90;;;;;;5019108;28;20207;-72
2022/06/25 01:05:33;;;;;;;4.68;3.53;;;20.80;80.00;;;;;;5013793;28;20214;-71
2022/06/25 01:08:02;;;;;;;7.78;4.13;;;20.80;80.30;;;;;;5013309;28;20214;-70
2022/06/25 01:10:28;;;;;;;4.28;3.30;;;20.70;80.30;;;;;;5019412;28;20206;-70
2022/06/25 01:12:55;;;;;;;4.10;3.40;;;20.70;80.70;;;;;;5034391;28;20210;-70
2022/06/25 01:15:22;;;;;;;4.20;3.90;;;20.60;80.80;;;;;;5018702;28;20207;-71
2022/06/25 01:17:50;;;;;;;5.05;3.90;;;20.60;81.10;;;;;;5012866;28;20246;-70
2022/06/25 01:20:19;;;;;;;4.65;3.60;;;20.50;81.40;;;;;;5023006;28;20725;-70
2022/06/25 01:22:47;;;;;;;4.78;3.92;;;20.40;81.60;;;;;;5033454;28;20222;-70
2022/06/25 01:25:15;;;;;;;4.13;3.72;;;20.40;81.90;;;;;;5019105;28;20577;-71
2022/06/25 01:27:42;;;;;;;4.38;3.97;;;20.30;82.10;;;;;;5021143;28;20588;-71
2022/06/25 01:30:11;;;;;;;3.90;3.50;;;20.30;82.30;;;;;;5023379;28;20245;-71
2022/06/25 01:32:39;;;;;;;4.78;3.88;;;20.30;82.60;;;;;;5020596;28;20218;-70
2022/06/25 01:35:07;;;;;;;4.55;4.15;;;20.20;82.70;;;;;;5022161;28;20238;-70
2022/06/25 01:37:34;;;;;;;4.38;3.83;;;20.20;82.90;;;;;;5021708;28;20242;-70
2022/06/25 01:40:04;;;;;;;4.75;3.50;;;20.20;82.90;;;;;;5021165;28;20207;-71
2022/06/25 01:45:15;;;;;;;5.45;3.53;;;20.20;82.90;;;;;;5019255;28;20202;-71
2022/06/25 01:47:41;;;;;;;4.57;3.78;;;20.20;83.10;;;;;;5026846;28;20214;-70
2022/06/25 01:50:10;;;;;;;3.83;3.38;;;20.20;83.20;;;;;;5023840;28;20211;-71
2022/06/25 01:52:37;;;;;;;3.25;2.95;;;20.20;83.30;;;;;;5014675;28;20222;-71
2022/06/25 01:55:07;;;;;;;4.10;3.70;;;20.20;83.30;;;;;;5027637;28;20203;-71
2022/06/25 01:57:33;;;;;;;4.00;3.60;;;20.20;83.20;;;;;;5016507;28;20217;-70
2022/06/25 02:00:00;;;;;;;3.80;3.50;;;20.20;83.10;;;;;;5027660;28;20298;-70
2022/06/25 02:02:27;;;;;;;6.05;3.20;;;20.20;83.10;;;;;;5023254;28;20211;-72
2022/06/25 02:04:54;;;;;;;4.25;3.15;;;20.20;83.10;;;;;;5026004;28;20219;-72
2022/06/25 02:07:21;;;;;;;4.55;3.08;;;20.20;83.00;;;;;;5021762;28;20225;-72
2022/06/25 02:09:48;;;;;;;3.22;3.00;;;20.20;83.10;;;;;;5015818;28;20203;-72
2022/06/25 02:12:16;;;;;;;3.78;3.40;;;20.20;83.20;;;;;;5015805;28;20657;-72
2022/06/25 02:14:43;;;;;;;3.92;3.50;;;20.20;83.20;;;;;;5022572;28;20211;-72
2022/06/25 02:17:09;;;;;;;3.72;3.42;;;20.20;83.30;;;;;;5019566;28;20794;-71
2022/06/25 02:19:36;;;;;;;3.17;2.80;;;20.20;83.40;;;;;;5023988;28;20245;-72
2022/06/25 02:22:03;;;;;;;3.63;2.70;;;20.20;83.50;;;;;;5025199;28;20211;-71
2022/06/25 02:24:30;;;;;;;3.42;3.08;;;20.20;83.50;;;;;;5014805;28;20222;-71
2022/06/25 02:26:57;;;;;;;3.97;3.22;;;20.30;83.70;;;;;;5015045;28;20214;-71
2022/06/25 02:29:25;;;;;;;3.42;3.00;;;20.20;83.70;;;;;;5025766;28;20237;-71
2022/06/25 02:31:52;;;;;;;3.88;3.15;;;20.20;83.70;;;;;;5013328;28;20246;-71
2022/06/25 02:34:18;;;;;;;3.53;3.13;;;20.20;83.70;;;;;;5024207;28;20564;-72
2022/06/25 02:36:45;;;;;;;4.75;3.33;;;20.20;83.80;;;;;;5017455;28;20199;-70
2022/06/25 02:39:12;;;;;;;3.53;3.22;;;20.30;83.90;;;;;;5027706;28;20230;-71
2022/06/25 02:41:39;;;;;;;3.50;3.20;;;20.30;83.80;;;;;;5015938;28;20294;-70
2022/06/25 02:44:05;;;;;;;5.03;3.03;;;20.30;83.90;;;;;;5025789;28;20210;-71
2022/06/25 02:46:34;;;;;;;3.50;3.15;;;20.30;83.80;;;;;;5024395;28;21055;-71
2022/06/25 02:49:01;;;;;;;3.70;3.40;;;20.40;84.00;;;;;;5013764;28;20207;-70
2022/06/25 02:51:27;;;;;;;5.40;3.30;;;20.40;84.00;;;;;;5014823;28;20208;-70
2022/06/25 02:53:56;;;;;;;3.53;2.80;;;20.40;83.90;;;;;;5022950;28;20214;-71
2022/06/25 02:59:09;;;;;;;4.25;2.90;;;20.40;83.90;;;;;;5012694;28;20237;-70
2022/06/25 03:01:37;;;;;;;3.30;3.00;;;20.40;84.00;;;;;;5019717;28;20230;-71
2022/06/25 03:04:04;;;;;;;3.67;3.15;;;20.40;84.00;;;;;;5015913;28;20211;-71
2022/06/25 03:06:31;;;;;;;3.15;2.88;;;20.50;84.10;;;;;;5015071;28;20215;-70
2022/06/25 03:08:57;;;;;;;4.18;2.88;;;20.50;84.20;;;;;;5020277;28;20583;-70
2022/06/25 03:11:24;;;;;;;4.57;2.95;;;20.50;84.10;;;;;;5011232;28;20206;-71
2022/06/25 03:13:51;;;;;;;3.28;2.97;;;20.50;84.10;;;;;;5019904;28;20207;-70
2022/06/25 03:16:18;;;;;;;3.35;3.05;;;20.60;84.20;;;;;;5018833;28;20269;-70
2022/06/25 03:18:46;;;;;;;3.50;3.00;;;20.60;84.10;;;;;;5029325;28;20562;-70
2022/06/25 03:21:12;;;;;;;7.32;3.22;;;20.60;84.10;;;;;;5018813;28;20215;-70
2022/06/25 03:23:39;;;;;;;5.00;2.72;;;20.70;84.20;;;;;;5032586;28;20221;-71
2022/06/25 03:26:06;;;;;;;3.35;3.05;;;20.70;84.10;;;;;;5022422;28;20202;-72
2022/06/25 03:28:33;;;;;;;5.05;3.05;;;20.80;84.00;;;;;;5022115;28;20222;-71
2022/06/25 03:31:00;;;;;;;2.97;2.72;;;20.80;84.00;;;;;;5028627;28;20214;-71
2022/06/25 03:33:26;;;;;;;3.35;2.90;;;20.90;83.80;;;;;;5030806;28;20206;-71
2022/06/25 03:35:54;;;;;;;2.90;2.70;;;20.90;83.70;;;;;;5019902;28;20207;-71
2022/06/25 03:38:21;;;;;;;3.67;3.33;;;21.00;83.70;;;;;;5021848;28;20215;-70
2022/06/25 03:40:48;;;;;;;6.03;2.90;;;21.00;83.60;;;;;;5020211;28;20203;-71
2022/06/25 03:43:15;;;;;;;4.72;2.83;;;21.10;83.60;;;;;;5030398;28;20209;-71
2022/06/25 03:45:41;;;;;;;4.00;2.83;;;21.10;83.50;;;;;;5020099;28;20672;-71
2022/06/25 03:48:08;;;;;;;3.17;2.88;;;21.20;83.50;;;;;;5030342;28;20660;-71
2022/06/25 03:50:38;;;;;;;4.18;3.22;;;21.20;83.60;;;;;;5021195;28;20207;-72
2022/06/25 03:53:06;;;;;;;2.67;2.47;;;21.30;83.50;;;;;;5024682;28;20207;-72
2022/06/25 03:55:33;;;;;;;3.40;3.00;;;21.20;83.30;;;;;;5025408;28;20773;-70
2022/06/25 03:58:00;;;;;;;3.38;2.72;;;21.30;83.30;;;;;;5023014;28;20217;-71
2022/06/25 04:00:26;;;;;;;6.30;3.47;;;21.30;83.30;;;;;;5026723;28;20238;-71
2022/06/25 04:02:53;;;;;;;3.55;2.50;;;21.40;83.40;;;;;;5026839;28;20211;-70
2022/06/25 04:05:20;;;;;;;3.85;3.00;;;21.40;83.40;;;;;;5017136;28;20215;-71
2022/06/25 04:07:46;;;;;;;4.28;2.80;;;21.40;83.40;;;;;;5016072;28;20214;-72
2022/06/25 04:10:15;;;;;;;3.83;2.78;;;21.40;83.30;;;;;;5014527;28;20727;-71
2022/06/25 04:12:41;;;;;;;4.53;2.80;;;21.40;83.30;;;;;;5018353;28;20583;-72
2022/06/25 04:15:09;;;;;;;4.47;3.42;;;21.50;83.40;;;;;;5021956;28;20218;-71
2022/06/25 04:17:36;;;;;;;3.42;3.13;;;21.50;83.50;;;;;;5025746;28;20238;-72
2022/06/25 04:20:04;;;;;;;2.85;2.65;;;21.60;83.30;;;;;;5029583;28;20227;-70
2022/06/25 04:22:31;;;;;;;5.05;2.80;;;21.60;82.90;;;;;;5034413;28;20219;-72
2022/06/25 04:24:57;;;;;;;3.03;2.60;;;21.60;82.80;;;;;;5017852;28;20218;-71
2022/06/25 04:30:11;;;;;;;6.13;2.92;;;21.70;83.00;;;;;;5018493;28;20376;-72
2022/06/25 04:32:37;;;;;;;2.90;2.70;;;21.70;82.50;;;;;;5022302;28;20207;-72
2022/06/25 04:35:05;;;;;;;5.20;2.92;;;21.80;82.30;;;;;;5023407;28;20203;-69
2022/06/25 04:37:32;;;;;;;3.70;3.40;;;21.80;82.10;;;;;;5023305;28;20215;-71
2022/06/25 04:39:59;;;;;;;7.00;3.03;;;21.80;82.10;;;;;;5017448;28;20238;-72
2022/06/25 04:42:27;;;;;;;5.00;3.05;;;21.80;82.00;;;;;;5018694;28;20215;-71
2022/06/25 04:44:54;;;;;;;4.38;3.10;;;21.80;82.10;;;;;;5019076;28;20208;-70
2022/06/25 04:47:20;;;;;;;2.90;2.70;;;21.80;82.00;;;;;;5017130;28;20215;-72
2022/06/25 04:49:47;;;;;;;3.20;2.88;;;21.80;82.50;;;;;;5014424;28;20204;-72
2022/06/25 04:52:14;;;;;;;3.58;2.90;;;21.90;81.70;;;;;;5014335;28;20222;-71
2022/06/25 04:54:41;;;;;;;2.78;2.47;;;21.90;81.50;;;;;;5024492;28;20211;-71
2022/06/25 04:57:07;;;;;;;3.65;2.78;;;21.90;81.50;;;;;;5015454;28;20792;-71
2022/06/25 04:59:35;;;;;;;3.22;2.92;;;22.00;81.40;;;;;;5027273;28;20226;-72
2022/06/25 05:02:02;;;;;;;3.40;2.90;;;22.00;81.30;;;;;;5026299;28;20331;-72
2022/06/25 05:04:29;;;;;;;4.32;3.42;;;22.10;81.40;;;;;;5020963;28;20211;-72
2022/06/25 05:06:56;;;;;;;5.45;3.00;;;22.10;81.20;;;;;;5028222;28;20218;-70
2022/06/25 05:09:23;;;;;;;5.70;2.90;;;22.20;81.30;;;;;;5017915;28;20294;-70
2022/06/25 05:11:51;;;;;;;3.70;3.40;;;22.20;81.20;;;;;;5025243;28;20550;-70
2022/06/25 05:14:17;;;;;;;3.35;2.90;;;22.30;81.40;;;;;;5029034;28;20211;-71
2022/06/25 05:16:46;;;;;;;3.97;3.60;;;22.30;81.40;;;;;;5017638;28;20262;-71
2022/06/25 05:19:13;;;;;;;3.40;3.10;;;22.30;81.20;;;;;;5026951;28;20322;-71
2022/06/25 05:21:40;;;;;;;3.20;2.90;;;22.40;80.80;;;;;;5031213;28;20214;-70
2022/06/25 05:24:07;;;;;;;5.53;3.42;;;22.40;80.70;;;;;;5022000;28;20265;-72
2022/06/25 05:26:34;;;;;;;5.38;3.58;;;22.50;80.80;;;;;;5015083;28;20212;-73
2022/06/25 05:29:01;;;;;;;4.03;2.85;;;22.50;80.70;;;;;;5026425;28;20229;-73
2022/06/25 05:31:28;;;;;;;3.08;2.78;;;22.60;80.80;;;;;;5032296;28;20218;-75
2022/06/25 05:33:56;;;;;;;4.13;3.22;;;22.70;80.60;;;;;;5022083;28;20230;-76
2022/06/25 05:36:23;;;;;;;4.75;3.17;;;22.70;80.40;;;;;;5017745;28;20222;-76
2022/06/25 05:38:49;;;;;;;3.67;3.00;;;22.70;80.00;;;;;;5023563;28;20207;-76
2022/06/25 05:41:16;;;;;;;4.43;2.95;;;22.80;79.80;;;;;;5022181;28;20253;-77
2022/06/25 05:43:43;;;;;;;2.97;2.67;;;22.80;79.80;;;;;;5018599;28;20548;-74
2022/06/25 05:46:10;;;;;;;6.35;3.25;;;22.90;79.80;;;;;;5018705;28;20218;-72
2022/06/25 05:48:37;;;;;;;6.32;3.65;;;22.90;79.60;;;;;;5017244;28;20218;-74
2022/06/25 05:51:06;;;;;;;4.82;3.47;;;22.90;79.60;;;;;;5027073;28;20716;-74
2022/06/25 05:53:32;;;;;;;3.58;3.13;;;23.10;79.40;;;;;;5021734;28;20211;-74
2022/06/25 05:55:59;;;;;;;4.53;2.92;;;23.20;79.10;;;;;;5021273;28;20600;-70
2022/06/25 05:58:26;;;;;;;2.72;2.53;;;23.20;78.80;;;;;;5026814;28;20687;-70
2022/06/25 06:00:53;;;;;;;4.15;2.90;;;23.30;78.80;;;;;;5013458;28;20238;-69
2022/06/25 06:03:19;;;;;;;3.13;2.83;;;23.40;78.50;;;;;;5020381;28;20207;-69
2022/06/25 06:05:46;;;;;;;4.07;2.85;;;23.50;78.60;;;;;;5022105;28;20218;-70
2022/06/25 06:08:14;;;;;;;3.78;3.05;;;23.50;78.20;;;;;;5015851;28;20215;-69
2022/06/25 06:10:41;;;;;;;4.22;2.95;;;23.60;77.80;;;;;;5030424;28;20203;-70
2022/06/25 06:13:08;;;;;;;5.25;2.47;;;23.80;77.70;;;;;;5023411;28;20215;-76
2022/06/25 06:15:35;;;;;;;3.42;2.90;;;23.80;77.40;;;;;;5026155;28;20206;-75
2022/06/25 06:18:02;;;;;;;3.38;3.05;;;23.80;77.10;;;;;;5019106;28;20209;-75
2022/06/25 06:20:29;;;;;;;10.65;3.15;;;24.00;76.60;;;;;;5036290;28;20691;-76
2022/06/25 06:22:56;;;;;;;6.80;3.13;;;24.10;76.20;;;;;;5027759;28;20235;-76
2022/06/25 06:25:24;;;;;;;4.13;2.90;;;24.10;75.90;;;;;;5033474;28;20218;-76
2022/06/25 06:27:51;;;;;;;5.82;3.17;;;24.20;76.60;;;;;;5022030;28;20674;-70
2022/06/25 06:30:18;;;;;;;3.20;2.50;;;24.30;75.20;;;;;;5013590;28;20235;-70
2022/06/25 06:32:46;;;;;;;5.78;3.10;;;24.30;75.10;;;;;;5020378;28;20207;-69
2022/06/25 06:35:13;;;;;;;4.22;3.10;;;24.40;75.30;;;;;;5018582;28;20254;-70
2022/06/25 06:37:39;;;;;;;4.03;2.92;;;24.50;75.50;;;;;;5013585;28;20211;-69
2022/06/25 06:40:08;;;;;;;4.68;2.85;;;24.60;76.10;;;;;;5020704;28;20231;-70
2022/06/25 06:42:37;;;;;;;3.05;2.83;;;24.60;75.80;;;;;;5014865;28;20785;-70
2022/06/25 06:45:04;;;;;;;5.88;2.58;;;24.70;75.20;;;;;;5022151;28;20206;-76
2022/06/25 06:47:32;;;;;;;2.75;2.50;;;24.80;73.90;;;;;;5029671;28;20222;-76
2022/06/25 06:49:58;;;;;;;4.72;2.60;;;24.80;73.40;;;;;;5017253;28;20207;-76
2022/06/25 06:52:26;;;;;;;3.80;2.45;;;24.90;73.00;;;;;;5021106;28;20298;-76
2022/06/25 06:54:53;;;;;;;3.05;2.50;;;24.90;71.70;;;;;;5017454;28;22047;-77
2022/06/25 06:57:20;;;;;;;2.55;2.35;;;24.90;71.10;;;;;;5014400;28;20257;-73
2022/06/25 06:59:48;;;;;;;4.07;2.65;;;25.00;71.40;;;;;;5017734;28;20234;-73
2022/06/25 07:02:15;;;;;;;2.55;2.35;;;25.00;71.50;;;;;;5018858;28;20225;-74
2022/06/25 07:04:44;;;;;;;5.47;2.88;;;25.10;71.40;;;;;;5015129;28;20575;-76
2022/06/25 07:07:10;;;;;;;4.05;2.60;;;25.10;71.50;;;;;;5017291;28;20223;-73
2022/06/25 07:09:37;;;;;;;3.30;2.53;;;25.20;71.60;;;;;;5013108;28;20231;-72
2022/06/25 07:12:05;;;;;;;2.63;2.42;;;25.30;71.40;;;;;;5023145;28;20203;-71
2022/06/25 07:14:31;;;;;;;3.97;2.40;;;25.40;70.70;;;;;;5017546;28;20291;-74
2022/06/25 07:16:59;;;;;;;2.83;2.40;;;25.40;69.30;;;;;;5019090;28;20242;-74
2022/06/25 07:19:26;;;;;;;3.92;2.25;;;25.40;67.70;;;;;;5017329;28;20214;-72
2022/06/25 07:21:54;;;;;;;3.55;2.85;;;25.50;67.20;;;;;;5015102;28;20207;-73
2022/06/25 07:24:21;;;;;;;2.55;2.35;;;25.60;67.20;;;;;;5012927;28;20207;-72
2022/06/25 07:26:48;;;;;;;3.90;2.40;;;25.70;67.30;;;;;;5017909;28;20200;-72
2022/06/25 07:29:15;;;;;;;2.70;2.17;;;25.80;67.40;;;;;;5012955;28;20227;-72
2022/06/25 07:31:42;;;;;;;4.28;2.58;;;25.90;66.50;;;;;;5018462;28;20228;-74
2022/06/25 07:34:10;;;;;;;2.25;2.05;;;26.00;65.90;;;;;;5011796;28;20204;-72
2022/06/25 07:36:37;;;;;;;3.08;2.38;;;26.00;64.40;;;;;;5019636;28;20206;-73
2022/06/25 07:39:04;;;;;;;2.78;2.08;;;26.10;63.70;;;;;;5019766;28;20202;-72
2022/06/25 07:41:31;;;;;;;2.53;2.03;;;26.30;63.90;;;;;;5015199;28;20226;-72
2022/06/25 07:43:58;;;;;;;2.50;2.20;;;26.40;64.20;;;;;;5016573;28;20726;-75
2022/06/25 07:46:26;;;;;;;4.18;2.20;;;26.50;64.30;;;;;;5026709;28;21153;-73
2022/06/25 07:48:53;;;;;;;3.42;2.35;;;26.60;63.60;;;;;;5020269;28;20706;-72
2022/06/25 07:54:06;;;;;;;4.13;2.22;;;26.70;63.30;;;;;;5016911;28;20226;-74
2022/06/25 07:56:33;;;;;;;3.83;2.17;;;26.80;62.30;;;;;;5014152;28;20204;-74
2022/06/25 07:59:00;;;;;;;2.88;2.38;;;26.90;62.50;;;;;;5012562;28;20212;-74
2022/06/25 08:01:27;;;;;;;2.40;2.20;;;27.00;61.80;;;;;;5014260;28;20223;-74
2022/06/25 08:03:54;;;;;;;2.50;2.30;;;27.00;61.80;;;;;;5013638;28;20207;-74
2022/06/25 08:06:22;;;;;;;2.45;2.20;;;27.10;61.30;;;;;;5020106;28;20683;-76
2022/06/25 08:08:49;;;;;;;2.90;1.90;;;27.10;59.60;;;;;;5023308;28;20315;-76
2022/06/25 08:11:16;;;;;;;1.85;1.75;;;27.10;60.10;;;;;;5021402;28;20207;-71
2022/06/25 08:13:43;;;;;;;3.05;1.83;;;27.20;59.00;;;;;;5020304;28;20226;-70
2022/06/25 08:16:10;;;;;;;1.70;1.60;;;27.20;58.50;;;;;;5022011;28;20245;-71
2022/06/25 08:18:38;;;;;;;2.35;1.80;;;27.20;58.40;;;;;;5016183;28;20204;-72
2022/06/25 08:21:06;;;;;;;2.00;1.90;;;27.30;58.30;;;;;;5021273;28;20235;-69
2022/06/25 08:23:34;;;;;;;4.05;1.90;;;27.40;58.30;;;;;;5027327;28;20206;-74
2022/06/25 08:26:02;;;;;;;1.75;1.65;;;27.50;58.60;;;;;;5019858;28;20206;-72
2022/06/25 08:28:29;;;;;;;2.80;2.28;;;27.60;58.50;;;;;;5019750;28;20215;-73
2022/06/25 08:30:56;;;;;;;1.90;1.80;;;27.60;58.20;;;;;;5019023;28;20261;-70
2022/06/25 08:33:23;;;;;;;4.68;2.08;;;27.70;58.00;;;;;;5016754;28;20211;-71
2022/06/25 08:35:50;;;;;;;2.92;2.10;;;27.80;57.70;;;;;;5015872;28;20214;-73
2022/06/25 08:38:17;;;;;;;4.20;2.22;;;27.80;57.80;;;;;;5019569;28;20230;-71
2022/06/25 08:40:45;;;;;;;2.92;1.90;;;27.80;58.00;;;;;;5019507;28;20254;-71
2022/06/25 08:43:13;;;;;;;2.38;2.17;;;27.90;58.10;;;;;;5021228;28;20211;-71
2022/06/25 08:45:40;;;;;;;2.03;1.85;;;27.90;58.00;;;;;;5017723;28;20730;-70
2022/06/25 08:48:12;;;;;;;2.20;2.00;;;28.00;58.00;;;;;;5015621;28;20211;-73
2022/06/25 08:50:42;;;;;;;2.20;1.70;;;28.00;57.70;;;;;;5027302;28;20246;-74
2022/06/25 08:53:10;;;;;;;2.47;2.28;;;28.10;57.20;;;;;;5022722;28;20203;-74
2022/06/25 08:55:39;;;;;;;5.03;2.20;;;28.10;57.10;;;;;;5016085;28;20289;-74
2022/06/25 08:58:09;;;;;;;2.33;2.00;;;28.20;57.00;;;;;;5016934;28;20203;-74
2022/06/25 09:00:39;;;;;;;8.45;2.10;;;28.20;56.70;;;;;;5021841;28;20712;-74
2022/06/25 09:03:07;;;;;;;2.40;2.15;;;28.20;56.50;;;;;;5019080;28;20208;-75
2022/06/25 09:05:35;;;;;;;4.10;2.17;;;28.20;56.90;;;;;;5027582;28;20250;-73
2022/06/25 09:08:05;;;;;;;1.80;1.70;;;28.20;57.00;;;;;;5016910;28;20203;-72
2022/06/25 09:10:32;;;;;;;2.17;2.08;;;28.40;56.50;;;;;;5032712;28;20219;-74
2022/06/25 09:13:00;;;;;;;2.00;1.80;;;28.50;56.20;;;;;;5018254;28;20208;-74
2022/06/25 09:15:31;;;;;;;2.33;2.15;;;28.50;55.70;;;;;;5016734;28;20207;-74
2022/06/25 09:18:05;;;;;;;2.50;2.20;;;28.50;55.80;;;;;;5024563;28;20211;-74
2022/06/25 09:20:32;;;;;;;2.85;2.03;;;28.60;56.00;;;;;;5032226;28;20221;-73
2022/06/25 09:23:02;;;;;;;2.53;2.33;;;28.70;55.50;;;;;;5035482;28;20210;-73
2022/06/25 09:25:32;;;;;;;2.15;1.92;;;28.80;55.60;;;;;;5018227;28;20211;-74
2022/06/25 09:27:59;;;;;;;2.80;2.10;;;29.00;55.60;;;;;;5021267;28;20579;-73
2022/06/25 09:30:28;;;;;;;2.58;1.80;;;29.10;55.20;;;;;;5031145;28;20234;-74
2022/06/25 09:32:59;;;;;;;3.13;1.65;;;29.10;54.50;;;;;;5035227;28;20214;-74
2022/06/25 09:35:31;;;;;;;2.90;1.50;;;29.20;54.00;;;;;;5020468;28;20214;-75
2022/06/25 09:38:06;;;;;;;4.93;1.73;;;29.20;53.60;;;;;;5022168;28;20211;-70
2022/06/25 09:40:33;;;;;;;2.10;1.83;;;29.30;53.60;;;;;;5016663;28;20238;-75
2022/06/25 09:43:10;;;;;;;2.30;2.10;;;29.40;53.10;;;;;;5023007;28;20226;-74
2022/06/25 09:45:37;;;;;;;2.47;2.10;;;29.40;53.50;;;;;;5019869;28;20215;-74
2022/06/25 09:48:09;;;;;;;2.55;1.70;;;29.40;53.40;;;;;;5020323;28;20225;-74
2022/06/25 09:50:36;;;;;;;2.85;1.50;;;29.60;53.30;;;;;;5018731;28;20664;-69
2022/06/25 09:53:03;;;;;;;1.38;1.30;;;29.60;52.70;;;;;;5019030;28;20669;-70
2022/06/25 09:55:37;;;;;;;4.13;1.70;;;29.60;52.20;;;;;;5015324;28;20234;-70
2022/06/25 09:58:05;;;;;;;1.90;1.80;;;29.60;52.70;;;;;;5015766;28;20687;-69
2022/06/25 10:00:32;;;;;;;1.50;1.40;;;29.60;52.90;;;;;;5014496;28;20231;-71
2022/06/25 10:03:00;;;;;;;3.30;1.80;;;29.80;51.90;;;;;;5018224;28;20215;-69
2022/06/25 10:05:40;;;;;;;1.67;1.50;;;29.90;51.30;;;;;;5024775;28;20215;-71
2022/06/25 10:08:10;;;;;;;1.83;1.73;;;29.90;52.10;;;;;;5025830;28;20203;-70
2022/06/25 10:10:41;;;;;;;2.33;1.70;;;30.00;52.50;;;;;;5025411;28;20604;-70
2022/06/25 10:13:09;;;;;;;2.22;1.63;;;30.10;52.60;;;;;;5025348;28;20232;-70
2022/06/25 10:15:36;;;;;;;2.88;1.90;;;30.20;52.70;;;;;;5021073;28;20723;-71
2022/06/25 10:18:06;;;;;;;2.25;1.90;;;30.20;52.20;;;;;;5014055;28;20200;-70
2022/06/25 10:20:35;;;;;;;2.00;1.90;;;30.20;51.80;;;;;;5026587;28;20230;-69
2022/06/25 10:23:04;;;;;;;2.10;1.90;;;30.20;52.60;;;;;;5032799;28;20272;-73
2022/06/25 10:25:31;;;;;;;4.25;2.08;;;30.30;52.00;;;;;;5022736;28;20203;-70
2022/06/25 10:28:07;;;;;;;4.65;1.70;;;30.40;52.10;;;;;;5019442;28;20222;-69
2022/06/25 10:30:48;;;;;;;2.53;2.28;;;30.50;51.90;;;;;;5026627;28;20246;-70
2022/06/25 10:33:16;;;;;;;2.17;1.65;;;30.60;51.30;;;;;;5026835;28;20216;-70
2022/06/25 10:35:45;;;;;;;1.73;1.58;;;30.70;51.40;;;;;;5016280;28;20215;-71
2022/06/25 10:38:14;;;;;;;4.70;1.80;;;30.70;51.10;;;;;;5016540;28;20210;-70
2022/06/25 10:40:50;;;;;;;2.78;2.10;;;30.80;50.80;;;;;;5013631;28;20227;-71
2022/06/25 10:43:36;;;;;;;2.58;2.20;;;30.90;50.90;;;;;;5020931;28;20202;-69
2022/06/25 10:46:22;;;;;;;2.63;1.77;;;30.90;50.90;;;;;;5015298;28;20203;-71
2022/06/25 10:48:56;;;;;;;4.78;1.73;;;31.00;50.80;;;;;;5016279;28;20625;-72
2022/06/25 10:51:36;;;;;;;2.50;1.75;;;31.00;50.50;;;;;;5023684;28;20202;-70
2022/06/25 10:54:04;;;;;;;1.73;1.63;;;31.00;50.40;;;;;;5020204;28;20207;-69
2022/06/25 10:56:43;;;;;;;2.75;2.00;;;31.00;50.70;;;;;;5026975;28;20210;-70
2022/06/25 10:59:10;;;;;;;4.20;2.17;;;30.90;50.40;;;;;;5031804;28;20249;-70
2022/06/25 11:01:37;;;;;;;2.58;2.38;;;30.90;50.10;;;;;;5019502;28;20230;-70
2022/06/25 11:04:09;;;;;;;3.03;2.00;;;30.80;50.30;;;;;;5019198;28;20250;-69
2022/06/25 11:06:39;;;;;;;3.13;2.65;;;30.90;50.70;;;;;;5015898;28;20207;-69
2022/06/25 11:09:11;;;;;;;2.42;2.10;;;30.90;50.90;;;;;;5025733;28;20207;-70
2022/06/25 11:11:39;;;;;;;3.03;1.80;;;31.00;50.70;;;;;;5032395;28;20217;-70
2022/06/25 11:14:19;;;;;;;1.77;1.67;;;31.10;50.30;;;;;;5013870;28;20571;-70
2022/06/25 11:16:46;;;;;;;3.92;2.13;;;31.00;50.20;;;;;;5028342;28;20292;-69
2022/06/25 11:19:13;;;;;;;2.00;1.90;;;31.00;50.80;;;;;;5026242;28;20206;-70
2022/06/25 11:21:43;;;;;;;1.75;1.63;;;31.10;50.70;;;;;;5013808;28;20590;-69
2022/06/25 11:24:12;;;;;;;2.00;1.80;;;31.10;50.30;;;;;;5021371;28;20232;-70
2022/06/25 11:29:29;;;;;;;2.63;2.00;;;31.30;50.10;;;;;;5026521;28;20712;-69
2022/06/25 11:31:57;;;;;;;3.35;2.10;;;31.40;50.10;;;;;;5020085;28;20206;-70
2022/06/25 11:34:25;;;;;;;2.63;2.42;;;31.50;50.10;;;;;;5015577;28;20222;-69
2022/06/25 11:37:02;;;;;;;2.05;1.52;;;31.60;49.80;;;;;;5014001;28;20219;-69
2022/06/25 11:39:29;;;;;;;1.90;1.80;;;31.70;49.70;;;;;;5023256;28;20210;-70
2022/06/25 11:41:56;;;;;;;2.28;1.92;;;31.80;49.60;;;;;;5030298;28;20226;-69
2022/06/25 11:44:23;;;;;;;2.65;2.45;;;31.80;49.60;;;;;;5023292;28;20226;-69
2022/06/25 11:46:52;;;;;;;2.30;2.10;;;31.80;49.20;;;;;;5026614;28;20214;-69
2022/06/25 11:49:20;;;;;;;3.50;2.28;;;31.80;49.10;;;;;;5022958;28;20207;-70
2022/06/25 11:51:49;;;;;;;2.60;2.20;;;31.70;49.10;;;;;;5021436;28;20214;-69
2022/06/25 11:54:22;;;;;;;4.20;2.58;;;31.80;49.10;;;;;;5023274;28;20687;-69
2022/06/25 11:56:50;;;;;;;3.05;2.17;;;31.80;49.00;;;;;;5022968;28;20233;-70
2022/06/25 11:59:24;;;;;;;4.38;2.28;;;31.80;48.60;;;;;;5021925;28;20196;-70
2022/06/25 12:01:51;;;;;;;2.83;1.70;;;31.60;48.70;;;;;;5019654;28;20784;-70
2022/06/25 12:04:18;;;;;;;3.47;2.22;;;31.70;49.10;;;;;;5023282;28;20277;-70
2022/06/25 12:06:47;;;;;;;4.13;1.90;;;31.80;48.80;;;;;;5029508;28;20214;-70
2022/06/25 12:09:17;;;;;;;2.63;2.42;;;31.80;48.60;;;;;;5031604;28;20207;-70
2022/06/25 12:11:51;;;;;;;2.80;2.30;;;31.80;48.80;;;;;;5026025;28;20214;-69
2022/06/25 12:14:20;;;;;;;2.00;1.90;;;31.80;49.00;;;;;;5019554;28;20206;-69
2022/06/25 12:16:48;;;;;;;2.10;2.00;;;31.80;48.70;;;;;;5024845;28;20234;-68
2022/06/25 12:19:15;;;;;;;3.22;1.90;;;31.80;47.90;;;;;;5033982;28;20611;-68
2022/06/25 12:21:42;;;;;;;3.65;2.20;;;31.90;47.70;;;;;;5019862;28;20219;-68
2022/06/25 12:24:12;;;;;;;2.15;2.00;;;32.00;47.90;;;;;;5017699;28;20285;-70
2022/06/25 12:26:43;;;;;;;1.80;1.70;;;31.90;47.50;;;;;;5014962;28;20230;-70
2022/06/25 12:29:12;;;;;;;2.55;2.10;;;31.70;47.60;;;;;;5022165;28;20257;-70
2022/06/25 12:31:39;;;;;;;2.83;2.03;;;31.70;48.30;;;;;;5029694;28;20786;-69
2022/06/25 12:34:07;;;;;;;2.13;1.92;;;31.60;48.10;;;;;;5024288;28;20210;-70
2022/06/25 12:36:39;;;;;;;3.03;1.90;;;31.60;48.30;;;;;;5021874;28;20204;-71
2022/06/25 12:39:28;;;;;;;4.95;2.47;;;31.40;48.60;;;;;;5024032;28;20218;-69
2022/06/25 12:41:57;;;;;;;2.50;2.30;;;31.40;48.90;;;;;;5024003;28;20219;-70
2022/06/25 12:44:30;;;;;;;2.30;2.10;;;31.20;49.20;;;;;;5028841;28;20741;-69
2022/06/25 12:47:02;;;;;;;2.38;2.20;;;31.00;49.40;;;;;;5014539;28;20206;-68
2022/06/25 12:49:44;;;;;;;2.33;2.10;;;30.80;49.50;;;;;;5030790;28;20295;-70
2022/06/25 12:52:12;;;;;;;3.08;2.05;;;30.60;49.60;;;;;;5019662;28;20207;-71
2022/06/25 12:54:44;;;;;;;2.70;1.92;;;30.60;49.70;;;;;;5020901;28;20203;-71
2022/06/25 12:57:20;;;;;;;2.28;2.17;;;30.70;49.70;;;;;;5020568;28;20221;-71
2022/06/25 12:59:48;;;;;;;2.40;2.20;;;30.80;49.60;;;;;;5016690;28;20298;-71
2022/06/25 13:02:15;;;;;;;2.20;2.00;;;31.00;49.70;;;;;;5018465;28;20317;-71
2022/06/25 13:04:42;;;;;;;3.17;2.10;;;31.20;49.30;;;;;;5020659;28;20571;-71